createdAt,value
2022-11-03T00:02:12.009Z,9.57
2022-11-03T00:12:15.567Z,9.46
2022-11-03T00:22:18.902Z,9.39
2022-11-03T00:32:22.181Z,9.24
2022-11-03T00:42:25.432Z,9.07
2022-11-03T00:52:28.738Z,8.93
2022-11-03T01:02:32.081Z,8.81
2022-11-03T01:12:35.467Z,8.76
2022-11-03T01:22:38.724Z,8.71
2022-11-03T01:32:42.073Z,8.60
2022-11-03T01:42:45.310Z,8.44
2022-11-03T01:52:56.249Z,8.53
2022-11-03T02:03:01.212Z,8.53
2022-11-03T02:13:12.960Z,8.56
2022-11-03T02:23:29.307Z,8.69
2022-11-03T02:33:48.001Z,8.72
2022-11-03T02:43:52.791Z,8.88
2022-11-03T02:54:14.681Z,8.97
2022-11-03T03:04:43.607Z,8.96
2022-11-03T03:14:49.525Z,9.00
2022-11-03T03:25:15.219Z,8.97
2022-11-03T03:35:23.884Z,8.82
2022-11-03T03:45:27.675Z,8.82
2022-11-03T03:55:39.391Z,8.84
2022-11-03T04:05:42.816Z,9.03
2022-11-03T04:15:51.911Z,9.13
2022-11-03T04:25:56.979Z,9.05
2022-11-03T04:36:00.687Z,9.11
2022-11-03T04:46:04.572Z,9.15
2022-11-03T04:56:15.888Z,9.17
2022-11-03T05:06:20.518Z,9.22
2022-11-03T05:16:24.846Z,9.22
2022-11-03T05:26:34.744Z,9.09
2022-11-03T05:36:38.935Z,9.11
2022-11-03T05:46:42.276Z,9.19
2022-11-03T05:56:45.587Z,9.04
2022-11-03T06:06:56.062Z,9.06
2022-11-03T06:17:08.383Z,9.13
2022-11-03T06:27:18.896Z,9.11
2022-11-03T06:37:27.892Z,9.19
2022-11-03T06:47:31.141Z,9.44
2022-11-03T06:57:43.235Z,9.54
2022-11-03T07:07:47.334Z,9.75
2022-11-03T07:17:50.998Z,9.91
2022-11-03T07:27:58.727Z,10.08
2022-11-03T07:38:10.121Z,10.16
2022-11-03T07:48:16.596Z,10.26
2022-11-03T07:58:24.763Z,10.43
2022-11-03T08:08:28.000Z,10.46
2022-11-03T08:18:31.298Z,10.49
2022-11-03T08:28:35.139Z,10.57
2022-11-03T08:38:38.653Z,10.58
2022-11-03T08:48:41.972Z,10.86
2022-11-03T08:58:45.304Z,11.07
2022-11-03T09:19:12.071Z,11.48
2022-11-03T09:29:15.275Z,11.67
2022-11-03T09:39:18.509Z,11.78
2022-11-03T09:49:21.924Z,12.00
2022-11-03T09:59:25.682Z,12.09
2022-11-03T10:09:29.887Z,12.18
2022-11-03T10:19:33.128Z,12.36
2022-11-03T10:29:38.895Z,12.57
2022-11-03T10:39:47.892Z,12.69
2022-11-03T10:49:51.457Z,12.83
2022-11-03T10:59:55.772Z,12.93
2022-11-03T11:10:07.252Z,12.77
2022-11-03T11:20:22.961Z,12.91
2022-11-03T11:30:29.210Z,12.94
2022-11-03T11:40:32.443Z,13.08
2022-11-03T11:50:36.421Z,13.19
2022-11-03T12:00:51.645Z,13.35
2022-11-03T12:10:57.981Z,13.35
2022-11-03T12:21:06.494Z,13.52
2022-11-03T12:31:09.777Z,13.47
2022-11-03T12:41:22.301Z,13.40
2022-11-03T12:51:25.988Z,13.31
2022-11-03T13:01:30.570Z,13.33
2022-11-03T13:11:52.765Z,13.39
2022-11-03T13:21:56.015Z,13.31
2022-11-03T13:31:59.406Z,13.21
2022-11-03T13:42:02.729Z,13.18
2022-11-03T13:52:06.310Z,12.98
2022-11-03T14:12:33.338Z,12.42
2022-11-03T14:22:37.159Z,12.17
2022-11-03T14:32:40.374Z,11.85
2022-11-03T14:42:43.912Z,11.58
2022-11-03T14:52:47.341Z,11.36
2022-11-03T15:02:50.556Z,11.11
2022-11-03T15:12:53.749Z,10.78
2022-11-03T15:33:21.499Z,10.21
2022-11-03T15:43:24.760Z,9.87
2022-11-03T15:53:28.060Z,9.53
2022-11-03T16:03:34.994Z,9.31
2022-11-03T16:13:38.370Z,9.10
2022-11-03T16:23:42.325Z,8.93
2022-11-03T16:33:46.264Z,8.75
2022-11-03T16:43:50.509Z,8.49
2022-11-03T16:53:54.986Z,8.19
2022-11-03T17:03:58.251Z,7.96
2022-11-03T17:14:03.883Z,7.75
2022-11-03T17:24:08.311Z,7.54
2022-11-03T17:34:12.419Z,7.31
2022-11-03T17:44:17.531Z,7.14
2022-11-03T17:54:20.816Z,6.92
2022-11-03T18:04:24.145Z,6.75
2022-11-03T18:14:29.767Z,6.58
2022-11-03T18:24:33.041Z,6.54
2022-11-03T18:34:36.737Z,6.45
2022-11-03T18:44:41.726Z,6.31
2022-11-03T18:54:47.562Z,6.17
2022-11-03T19:04:51.297Z,6.06
2022-11-03T19:14:54.608Z,5.95
2022-11-03T19:24:57.843Z,5.95
2022-11-03T19:35:20.704Z,5.91
2022-11-03T19:45:24.418Z,5.92
2022-11-03T19:55:40.617Z,5.84
2022-11-03T20:05:49.280Z,5.77
2022-11-03T20:15:58.939Z,5.70
2022-11-03T20:26:04.748Z,5.70
2022-11-03T20:36:15.215Z,5.70
2022-11-03T20:46:18.473Z,5.74
2022-11-03T20:56:24.964Z,5.72
2022-11-03T21:06:30.525Z,5.67
2022-11-03T21:16:52.633Z,5.60
2022-11-03T21:26:55.920Z,5.52
2022-11-03T21:36:59.345Z,5.49
2022-11-03T21:47:02.530Z,5.54
2022-11-03T21:57:08.157Z,5.61
2022-11-03T22:07:12.285Z,5.74
2022-11-03T22:17:15.599Z,5.80
2022-11-03T22:27:18.898Z,5.87
2022-11-03T22:37:22.120Z,5.93
2022-11-03T22:47:27.102Z,5.95
2022-11-03T22:57:30.594Z,5.95
2022-11-03T23:07:41.008Z,5.99
2022-11-03T23:18:03.159Z,6.05
2022-11-03T23:28:06.508Z,6.06
2022-11-03T23:38:10.076Z,6.04
2022-11-03T23:48:39.976Z,6.04
2022-11-03T23:58:43.127Z,6.05
